createdAt,value
2023-11-18T00:00:44.322Z,1006.5
2023-11-18T00:01:58.616Z,1006.5
2023-11-18T00:03:12.909Z,1006.5
2023-11-18T00:04:27.202Z,1006.6
2023-11-18T00:05:41.496Z,1006.6
2023-11-18T00:06:55.789Z,1006.6
2023-11-18T00:08:10.082Z,1006.6
2023-11-18T00:09:24.375Z,1006.6
2023-11-18T00:10:38.669Z,1006.6
2023-11-18T00:11:52.962Z,1006.6
2023-11-18T00:13:06.271Z,1006.6
2023-11-18T00:14:20.565Z,1006.6
2023-11-18T00:15:34.858Z,1006.6
2023-11-18T00:16:49.152Z,1006.6
2023-11-18T00:18:03.445Z,1006.6
2023-11-18T00:19:17.738Z,1006.6
2023-11-18T00:20:32.031Z,1006.6
2023-11-18T00:21:46.325Z,1006.6
2023-11-18T00:23:00.619Z,1006.6
2023-11-18T00:24:14.912Z,1006.6
2023-11-18T00:25:29.205Z,1006.7
2023-11-18T00:26:43.499Z,1006.7
2023-11-18T00:27:57.792Z,1006.7
2023-11-18T00:29:11.101Z,1006.7
2023-11-18T00:30:25.394Z,1006.7
2023-11-18T00:31:39.688Z,1006.7
2023-11-18T00:32:53.981Z,1006.7
2023-11-18T00:34:08.274Z,1006.7
2023-11-18T00:35:22.567Z,1006.7
2023-11-18T00:36:35.882Z,1006.7
2023-11-18T00:37:50.175Z,1006.7
2023-11-18T00:39:04.469Z,1006.7
2023-11-18T00:40:18.762Z,1006.7
2023-11-18T00:41:33.055Z,1006.7
2023-11-18T00:42:47.348Z,1006.7
2023-11-18T00:44:01.643Z,1006.7
2023-11-18T00:45:15.936Z,1006.8
2023-11-18T00:46:30.229Z,1006.7
2023-11-18T00:47:44.522Z,1006.8
2023-11-18T00:48:58.816Z,1006.8
2023-11-18T00:50:13.109Z,1006.8
2023-11-18T00:51:27.402Z,1006.7
2023-11-18T00:52:40.712Z,1006.7
2023-11-18T00:53:55.005Z,1006.8
2023-11-18T00:55:09.298Z,1006.8
2023-11-18T00:56:23.592Z,1006.8
2023-11-18T00:57:37.885Z,1006.8
2023-11-18T00:58:52.178Z,1006.8
2023-11-18T01:00:06.472Z,1006.8
2023-11-18T01:01:20.765Z,1006.8
2023-11-18T01:02:35.058Z,1006.8
2023-11-18T01:03:49.352Z,1006.8
2023-11-18T01:05:03.645Z,1006.8
2023-11-18T01:06:17.938Z,1006.8
2023-11-18T01:07:32.231Z,1006.8
2023-11-18T01:08:45.541Z,1006.8
2023-11-18T01:09:59.834Z,1006.8
2023-11-18T01:11:14.128Z,1006.9
2023-11-18T01:12:28.421Z,1006.8
2023-11-18T01:13:42.714Z,1006.8
2023-11-18T01:14:57.007Z,1006.8
2023-11-18T01:16:11.300Z,1006.8
2023-11-18T01:17:25.594Z,1006.8
2023-11-18T01:18:39.887Z,1006.8
2023-11-18T01:19:54.180Z,1006.8
2023-11-18T01:21:08.474Z,1006.8
2023-11-18T01:22:22.767Z,1006.8
2023-11-18T01:23:37.060Z,1006.8
2023-11-18T01:24:50.369Z,1006.8
2023-11-18T01:26:04.663Z,1006.8
2023-11-18T01:27:18.956Z,1006.8
2023-11-18T01:28:33.249Z,1006.8
2023-11-18T01:29:47.542Z,1006.8
2023-11-18T01:31:01.836Z,1006.8
2023-11-18T01:32:16.129Z,1006.8
2023-11-18T01:33:30.423Z,1006.8
2023-11-18T01:34:44.716Z,1006.8
2023-11-18T01:35:59.009Z,1006.8
2023-11-18T01:37:13.303Z,1006.8
2023-11-18T01:38:27.596Z,1006.8
2023-11-18T01:39:41.889Z,1006.8
2023-11-18T01:40:55.199Z,1006.8
2023-11-18T01:42:09.492Z,1006.8
2023-11-18T01:43:23.786Z,1006.8
2023-11-18T01:44:38.079Z,1006.8
2023-11-18T01:45:52.372Z,1006.8
2023-11-18T01:47:06.665Z,1006.8
2023-11-18T01:48:20.959Z,1006.8
2023-11-18T01:49:35.252Z,1006.8
2023-11-18T01:50:49.545Z,1006.9
2023-11-18T01:52:03.839Z,1006.9
2023-11-18T01:53:18.132Z,1006.9
2023-11-18T01:54:32.426Z,1006.9
2023-11-18T01:55:46.719Z,1006.9
2023-11-18T01:57:00.029Z,1006.9
2023-11-18T01:58:14.322Z,1006.9
2023-11-18T01:59:28.615Z,1006.9
2023-11-18T02:00:42.910Z,1006.9
2023-11-18T02:03:11.496Z,1006.9
2023-11-18T02:05:40.083Z,1006.9
2023-11-18T02:06:54.377Z,1006.9
2023-11-18T02:08:08.670Z,1006.9
2023-11-18T02:09:22.963Z,1006.9
2023-11-18T02:10:37.257Z,1007
2023-11-18T02:11:51.550Z,1007
2023-11-18T02:13:04.860Z,1007
2023-11-18T02:14:19.153Z,1007
2023-11-18T02:15:33.447Z,1007
2023-11-18T02:16:47.740Z,1007
2023-11-18T02:18:02.034Z,1007
2023-11-18T02:20:30.622Z,1007
2023-11-18T02:21:43.936Z,1007
2023-11-18T02:22:57.246Z,1007
2023-11-18T02:24:11.539Z,1007.1
2023-11-18T02:25:25.833Z,1007.1
2023-11-18T02:26:40.126Z,1007.1
2023-11-18T02:27:54.421Z,1007.1
2023-11-18T02:29:08.716Z,1007.1
2023-11-18T02:30:23.009Z,1007.1
2023-11-18T02:31:37.303Z,1007.1
2023-11-18T02:32:51.596Z,1007.1
2023-11-18T02:34:04.911Z,1007.1
2023-11-18T02:35:18.220Z,1007.1
2023-11-18T02:36:32.515Z,1007.2
2023-11-18T02:37:46.808Z,1007.2
2023-11-18T02:40:15.395Z,1007.2
2023-11-18T02:41:29.689Z,1007.2
2023-11-18T02:42:43.982Z,1007.2
2023-11-18T02:43:58.276Z,1007.2
2023-11-18T02:45:12.569Z,1007.2
2023-11-18T02:46:26.863Z,1007.2
2023-11-18T02:48:55.450Z,1007.3
2023-11-18T02:50:08.764Z,1007.3
2023-11-18T02:52:36.368Z,1007.3
2023-11-18T02:53:50.661Z,1007.3
2023-11-18T02:55:04.955Z,1007.3
2023-11-18T02:56:19.248Z,1007.3
2023-11-18T02:57:33.542Z,1007.3
2023-11-18T02:58:47.835Z,1007.3
2023-11-18T03:00:02.129Z,1007.3
2023-11-18T03:01:16.422Z,1007.3
2023-11-18T03:03:45.010Z,1007.3
2023-11-18T03:04:58.325Z,1007.3
2023-11-18T03:06:11.634Z,1007.3
2023-11-18T03:07:25.928Z,1007.4
2023-11-18T03:08:40.221Z,1007.4
2023-11-18T03:12:23.101Z,1007.4
2023-11-18T03:13:37.395Z,1007.4
2023-11-18T03:14:51.689Z,1007.4
2023-11-18T03:16:05.982Z,1007.4
2023-11-18T03:17:20.277Z,1007.4
2023-11-18T03:19:48.864Z,1007.4
2023-11-18T03:21:03.158Z,1007.4
2023-11-18T03:22:16.467Z,1007.4
2023-11-18T03:23:30.761Z,1007.5
2023-11-18T03:24:45.054Z,1007.5
2023-11-18T03:25:59.348Z,1007.5
2023-11-18T03:27:13.642Z,1007.5
2023-11-18T03:28:27.936Z,1007.5
2023-11-18T03:29:42.229Z,1007.5
2023-11-18T03:30:56.523Z,1007.5
2023-11-18T03:32:10.817Z,1007.5
2023-11-18T03:33:25.111Z,1007.5
2023-11-18T03:34:39.404Z,1007.5
2023-11-18T03:35:53.698Z,1007.5
2023-11-18T03:37:07.992Z,1007.5
2023-11-18T03:38:21.307Z,1007.5
2023-11-18T03:39:34.621Z,1007.5
2023-11-18T03:40:47.931Z,1007.5
2023-11-18T03:42:02.225Z,1007.5
2023-11-18T03:43:16.518Z,1007.6
2023-11-18T03:44:30.812Z,1007.6
2023-11-18T03:45:45.105Z,1007.6
2023-11-18T03:46:59.399Z,1007.6
2023-11-18T03:48:13.692Z,1007.6
2023-11-18T03:49:27.986Z,1007.7
2023-11-18T03:50:42.280Z,1007.7
2023-11-18T03:51:55.595Z,1007.7
2023-11-18T03:53:08.909Z,1007.8
2023-11-18T03:54:22.219Z,1007.8
2023-11-18T03:55:36.512Z,1007.8
2023-11-18T03:56:50.806Z,1007.8
2023-11-18T03:58:05.099Z,1007.8
2023-11-18T03:59:19.393Z,1007.8
2023-11-18T04:00:33.686Z,1007.8
2023-11-18T04:01:47.980Z,1007.7
2023-11-18T04:03:02.274Z,1007.7
2023-11-18T04:04:16.567Z,1007.7
2023-11-18T04:05:30.860Z,1007.7
2023-11-18T04:06:45.154Z,1007.7
2023-11-18T04:07:59.447Z,1007.7
2023-11-18T04:09:13.741Z,1007.7
2023-11-18T04:10:27.050Z,1007.7
2023-11-18T04:11:41.344Z,1007.7
2023-11-18T04:12:55.637Z,1007.7
2023-11-18T04:14:09.931Z,1007.7
2023-11-18T04:15:24.224Z,1007.7
2023-11-18T04:16:38.518Z,1007.7
2023-11-18T04:17:51.833Z,1007.7
2023-11-18T04:19:05.142Z,1007.7
2023-11-18T04:20:19.436Z,1007.7
2023-11-18T04:21:33.729Z,1007.7
2023-11-18T04:22:48.022Z,1007.7
2023-11-18T04:24:02.316Z,1007.7
2023-11-18T04:25:16.609Z,1007.7
2023-11-18T04:26:30.903Z,1007.7
2023-11-18T04:27:45.197Z,1007.7
2023-11-18T04:28:59.490Z,1007.7
2023-11-18T04:30:13.783Z,1007.7
2023-11-18T04:31:28.077Z,1007.7
2023-11-18T04:32:42.370Z,1007.7
2023-11-18T04:33:56.664Z,1007.7
2023-11-18T04:35:09.973Z,1007.7
2023-11-18T04:36:24.267Z,1007.7
2023-11-18T04:37:38.561Z,1007.7
2023-11-18T04:38:52.854Z,1007.7
2023-11-18T04:40:07.147Z,1007.7
2023-11-18T04:41:21.441Z,1007.8
2023-11-18T04:42:34.756Z,1007.8
2023-11-18T04:43:48.065Z,1007.8
2023-11-18T04:45:01.380Z,1007.8
2023-11-18T04:46:15.673Z,1007.8
2023-11-18T04:47:29.967Z,1007.8
2023-11-18T04:48:44.260Z,1007.8
2023-11-18T04:51:12.848Z,1007.8
2023-11-18T04:52:27.141Z,1007.8
2023-11-18T04:53:41.435Z,1007.7
2023-11-18T04:54:55.728Z,1007.7
2023-11-18T04:56:10.021Z,1007.7
2023-11-18T04:57:24.315Z,1007.7
2023-11-18T04:58:38.608Z,1007.7
2023-11-18T04:59:52.902Z,1007.7
2023-11-18T05:01:06.211Z,1007.7
2023-11-18T05:02:20.505Z,1007.8
2023-11-18T05:03:34.799Z,1007.8
2023-11-18T05:04:49.092Z,1007.8
2023-11-18T05:06:03.386Z,1007.8
2023-11-18T05:07:17.679Z,1007.8
2023-11-18T05:08:30.994Z,1007.8
2023-11-18T05:09:44.304Z,1007.8
2023-11-18T05:10:58.597Z,1007.8
2023-11-18T05:12:12.891Z,1007.8
2023-11-18T05:13:27.184Z,1007.8
2023-11-18T05:14:41.478Z,1007.8
2023-11-18T05:15:55.771Z,1007.9
2023-11-18T05:17:10.065Z,1007.9
2023-11-18T05:18:24.358Z,1007.9
2023-11-18T05:19:38.652Z,1007.9
2023-11-18T05:20:52.945Z,1007.9
2023-11-18T05:22:07.239Z,1007.9
2023-11-18T05:23:21.532Z,1007.9
2023-11-18T05:24:35.827Z,1007.9
2023-11-18T05:25:49.136Z,1007.9
2023-11-18T05:27:03.430Z,1007.9
2023-11-18T05:28:17.723Z,1007.9
2023-11-18T05:29:32.017Z,1007.9
2023-11-18T05:30:46.310Z,1007.9
2023-11-18T05:32:00.604Z,1007.9
2023-11-18T05:33:13.918Z,1007.9
2023-11-18T05:34:27.228Z,1007.9
2023-11-18T05:35:41.521Z,1008
2023-11-18T05:36:55.815Z,1008
2023-11-18T05:38:10.108Z,1008
2023-11-18T05:39:24.402Z,1008
2023-11-18T05:40:38.695Z,1008
2023-11-18T05:41:52.988Z,1007.9
2023-11-18T05:43:07.282Z,1007.9
2023-11-18T05:44:21.575Z,1007.9
2023-11-18T05:45:35.869Z,1007.9
2023-11-18T05:46:50.162Z,1007.8
2023-11-18T05:48:04.456Z,1007.8
2023-11-18T05:49:18.749Z,1007.9
2023-11-18T05:50:32.059Z,1007.9
2023-11-18T05:51:46.352Z,1007.9
2023-11-18T05:53:00.645Z,1007.8
2023-11-18T05:54:14.939Z,1007.8
2023-11-18T05:55:29.232Z,1007.8
2023-11-18T05:56:43.525Z,1007.8
2023-11-18T05:57:57.819Z,1007.8
2023-11-18T05:59:12.113Z,1007.8
2023-11-18T06:00:26.406Z,1007.8
2023-11-18T06:01:40.699Z,1007.9
2023-11-18T06:02:54.993Z,1007.9
2023-11-18T06:04:09.286Z,1007.9
2023-11-18T06:06:37.819Z,1007.9
2023-11-18T06:07:51.129Z,1007.9
2023-11-18T06:09:05.379Z,1007.9
2023-11-18T06:10:19.619Z,1007.8
2023-11-18T06:11:33.858Z,1007.8
2023-11-18T06:12:48.152Z,1007.9
2023-11-18T06:14:02.446Z,1007.9
2023-11-18T06:15:16.696Z,1007.9
2023-11-18T06:16:30.936Z,1007.8
2023-11-18T06:17:45.175Z,1007.8
2023-11-18T06:18:59.469Z,1007.8
2023-11-18T06:20:13.720Z,1007.8
2023-11-18T06:21:27.959Z,1007.8
2023-11-18T06:22:42.199Z,1007.8
2023-11-18T06:23:55.454Z,1007.8
2023-11-18T06:25:09.693Z,1007.8
2023-11-18T06:26:23.933Z,1007.8
2023-11-18T06:27:38.172Z,1007.8
2023-11-18T06:28:52.412Z,1007.8
2023-11-18T06:30:06.651Z,1007.8
2023-11-18T06:31:20.891Z,1007.8
2023-11-18T06:32:35.130Z,1007.8
2023-11-18T06:33:49.370Z,1007.8
2023-11-18T06:35:03.609Z,1007.8
2023-11-18T06:36:17.848Z,1007.8
2023-11-18T06:37:32.088Z,1007.8
2023-11-18T06:38:46.327Z,1007.8
2023-11-18T06:39:59.583Z,1007.8
2023-11-18T06:42:28.062Z,1007.8
2023-11-18T06:43:42.301Z,1007.8
2023-11-18T06:44:56.541Z,1007.8
2023-11-18T06:46:10.780Z,1007.8
2023-11-18T06:47:25.019Z,1007.8
2023-11-18T06:48:39.259Z,1007.8
2023-11-18T06:49:53.498Z,1007.8
2023-11-18T06:51:07.737Z,1007.8
2023-11-18T06:52:21.977Z,1007.8
2023-11-18T06:53:36.217Z,1007.8
2023-11-18T06:54:50.456Z,1007.9
2023-11-18T06:56:03.711Z,1007.9
2023-11-18T06:57:17.951Z,1007.9
2023-11-18T06:58:32.190Z,1007.9
2023-11-18T06:59:46.430Z,1007.9
2023-11-18T07:02:14.908Z,1007.9
2023-11-18T07:03:29.148Z,1007.9
2023-11-18T07:04:43.387Z,1007.9
2023-11-18T07:05:57.627Z,1007.9
2023-11-18T07:07:11.866Z,1007.9
2023-11-18T07:08:26.105Z,1007.9
2023-11-18T07:09:40.345Z,1007.9
2023-11-18T07:10:54.584Z,1007.9
2023-11-18T07:12:07.840Z,1008
2023-11-18T07:13:22.079Z,1008
2023-11-18T07:14:36.319Z,1008.1
2023-11-18T07:15:50.559Z,1008.1
2023-11-18T07:17:04.799Z,1008.1
2023-11-18T07:18:19.038Z,1008.2
2023-11-18T07:19:33.277Z,1008.2
2023-11-18T07:20:47.517Z,1008.2
2023-11-18T07:22:01.756Z,1008.3
2023-11-18T07:23:15.995Z,1008.3
2023-11-18T07:24:30.235Z,1008.3
2023-11-18T07:25:44.474Z,1008.3
2023-11-18T07:26:58.714Z,1008.3
2023-11-18T07:28:11.969Z,1008.4
2023-11-18T07:29:26.209Z,1008.4
2023-11-18T07:30:40.448Z,1008.4
2023-11-18T07:31:54.687Z,1008.4
2023-11-18T07:33:08.927Z,1008.4
2023-11-18T07:34:23.166Z,1008.4
2023-11-18T07:35:37.406Z,1008.4
2023-11-18T07:36:51.645Z,1008.4
2023-11-18T07:38:05.885Z,1008.4
2023-11-18T07:39:20.124Z,1008.4
2023-11-18T07:40:34.363Z,1008.4
2023-11-18T07:41:48.603Z,1008.4
2023-11-18T07:43:02.842Z,1008.3
2023-11-18T07:44:16.097Z,1008.3
2023-11-18T07:45:30.337Z,1008.4
2023-11-18T07:46:44.576Z,1008.4
2023-11-18T07:47:58.816Z,1008.4
2023-11-18T07:49:13.055Z,1008.4
2023-11-18T07:50:27.294Z,1008.4
2023-11-18T07:51:41.534Z,1008.4
2023-11-18T07:52:55.773Z,1008.5
2023-11-18T07:54:10.012Z,1008.5
2023-11-18T07:55:24.252Z,1008.5
2023-11-18T07:56:38.491Z,1008.6
2023-11-18T07:57:52.730Z,1008.6
2023-11-18T07:59:06.970Z,1008.6
2023-11-18T08:00:20.225Z,1008.6
2023-11-18T08:01:34.464Z,1008.6
2023-11-18T08:02:48.704Z,1008.6
2023-11-18T08:04:02.943Z,1008.6
2023-11-18T08:05:17.182Z,1008.7
2023-11-18T08:06:31.421Z,1008.7
2023-11-18T08:07:45.661Z,1008.6
2023-11-18T08:08:59.900Z,1008.6
2023-11-18T08:11:28.379Z,1008.7
2023-11-18T08:12:42.618Z,1008.7
2023-11-18T08:13:56.857Z,1008.7
2023-11-18T08:15:11.096Z,1008.7
2023-11-18T08:16:24.352Z,1008.7
2023-11-18T08:17:38.591Z,1008.7
2023-11-18T08:18:52.831Z,1008.7
2023-11-18T08:20:07.070Z,1008.7
2023-11-18T08:21:21.309Z,1008.7
2023-11-18T08:22:35.549Z,1008.7
2023-11-18T08:23:49.788Z,1008.7
2023-11-18T08:25:04.027Z,1008.7
2023-11-18T08:26:18.266Z,1008.7
2023-11-18T08:27:32.505Z,1008.7
2023-11-18T08:28:46.745Z,1008.7
2023-11-18T08:30:00.984Z,1008.7
2023-11-18T08:31:15.223Z,1008.7
2023-11-18T08:32:28.479Z,1008.7
2023-11-18T08:33:42.718Z,1008.7
2023-11-18T08:34:56.957Z,1008.7
2023-11-18T08:36:11.196Z,1008.7
2023-11-18T08:37:25.436Z,1008.6
2023-11-18T08:38:39.675Z,1008.6
2023-11-18T08:39:53.914Z,1008.6
2023-11-18T08:41:08.153Z,1008.6
2023-11-18T08:42:22.393Z,1008.6
2023-11-18T08:43:36.632Z,1008.6
2023-11-18T08:44:50.871Z,1008.5
2023-11-18T08:46:05.110Z,1008.6
2023-11-18T08:47:19.349Z,1008.6
2023-11-18T08:48:32.604Z,1008.6
2023-11-18T08:49:46.843Z,1008.6
2023-11-18T08:51:01.082Z,1008.6
2023-11-18T08:52:15.321Z,1008.6
2023-11-18T08:53:28.582Z,1008.5
2023-11-18T08:55:57.060Z,1008.5
2023-11-18T08:57:11.299Z,1008.5
2023-11-18T08:58:25.538Z,1008.5
2023-11-18T08:59:39.777Z,1008.5
2023-11-18T09:00:54.016Z,1008.5
2023-11-18T09:02:08.255Z,1008.5
2023-11-18T09:03:22.494Z,1008.5
2023-11-18T09:04:36.733Z,1008.5
2023-11-18T09:05:50.972Z,1008.5
2023-11-18T09:07:05.211Z,1008.5
2023-11-18T09:08:19.450Z,1008.6
2023-11-18T09:09:32.705Z,1008.6
2023-11-18T09:10:46.944Z,1008.6
2023-11-18T09:13:15.422Z,1008.7
2023-11-18T09:14:29.661Z,1008.7
2023-11-18T09:15:43.901Z,1008.7
2023-11-18T09:16:58.140Z,1008.7
2023-11-18T09:18:12.378Z,1008.8
2023-11-18T09:19:26.617Z,1008.8
2023-11-18T09:20:40.856Z,1008.8
2023-11-18T09:21:55.095Z,1008.7
2023-11-18T09:23:09.334Z,1008.7
2023-11-18T09:24:23.573Z,1008.8
2023-11-18T09:25:36.828Z,1008.8
2023-11-18T09:26:51.067Z,1008.8
2023-11-18T09:28:05.306Z,1008.8
2023-11-18T09:29:19.545Z,1008.8
2023-11-18T09:30:33.784Z,1008.8
2023-11-18T09:31:48.022Z,1008.8
2023-11-18T09:33:02.261Z,1008.8
2023-11-18T09:34:16.501Z,1008.8
2023-11-18T09:35:30.741Z,1008.8
2023-11-18T09:36:44.980Z,1008.8
2023-11-18T09:37:59.219Z,1008.8
2023-11-18T09:39:13.458Z,1008.8
2023-11-18T09:40:27.697Z,1008.8
2023-11-18T09:41:40.952Z,1008.9
2023-11-18T09:42:55.191Z,1008.9
2023-11-18T09:44:09.429Z,1008.9
2023-11-18T09:45:23.669Z,1008.9
2023-11-18T09:46:37.908Z,1008.9
2023-11-18T09:47:52.147Z,1008.9
2023-11-18T09:49:06.386Z,1008.9
2023-11-18T09:50:20.624Z,1008.9
2023-11-18T09:51:34.863Z,1008.9
2023-11-18T09:54:03.341Z,1008.9
2023-11-18T09:55:17.581Z,1008.9
2023-11-18T09:56:31.820Z,1008.9
2023-11-18T09:57:45.075Z,1008.9
2023-11-18T09:58:59.314Z,1008.9
2023-11-18T10:00:13.553Z,1008.9
2023-11-18T10:01:27.791Z,1008.9
2023-11-18T10:02:42.030Z,1008.9
2023-11-18T10:03:56.269Z,1008.9
2023-11-18T10:05:10.508Z,1008.9
2023-11-18T10:06:24.748Z,1008.9
2023-11-18T10:07:38.987Z,1008.9
2023-11-18T10:08:53.226Z,1008.9
2023-11-18T10:10:07.465Z,1008.9
2023-11-18T10:11:21.704Z,1008.9
2023-11-18T10:13:50.182Z,1008.8
2023-11-18T10:15:03.437Z,1008.8
2023-11-18T10:16:17.676Z,1008.8
2023-11-18T10:17:31.915Z,1008.7
2023-11-18T10:18:46.154Z,1008.7
2023-11-18T10:20:00.393Z,1008.6
2023-11-18T10:21:14.632Z,1008.6
2023-11-18T10:22:28.871Z,1008.6
2023-11-18T10:23:43.111Z,1008.6
2023-11-18T10:24:57.350Z,1008.6
2023-11-18T10:26:11.589Z,1008.6
2023-11-18T10:27:25.828Z,1008.6
2023-11-18T10:28:40.067Z,1008.6
2023-11-18T10:31:08.545Z,1008.6
2023-11-18T10:32:21.800Z,1008.6
2023-11-18T10:33:36.039Z,1008.6
2023-11-18T10:34:50.278Z,1008.5
2023-11-18T10:36:04.517Z,1008.5
2023-11-18T10:37:18.756Z,1008.5
2023-11-18T10:38:32.995Z,1008.5
2023-11-18T10:41:01.473Z,1008.5
2023-11-18T10:42:15.711Z,1008.5
2023-11-18T10:43:29.950Z,1008.5
2023-11-18T10:44:44.189Z,1008.5
2023-11-18T10:45:58.428Z,1008.5
2023-11-18T10:47:12.667Z,1008.5
2023-11-18T10:48:25.922Z,1008.5
2023-11-18T10:49:40.162Z,1008.5
2023-11-18T10:50:54.401Z,1008.6
2023-11-18T10:52:08.640Z,1008.6
2023-11-18T10:53:22.879Z,1008.5
2023-11-18T10:54:37.118Z,1008.5
2023-11-18T10:55:51.356Z,1008.5
2023-11-18T10:57:05.595Z,1008.5
2023-11-18T10:58:19.834Z,1008.5
2023-11-18T10:59:34.074Z,1008.5
2023-11-18T11:00:48.313Z,1008.5
2023-11-18T11:02:02.552Z,1008.5
2023-11-18T11:03:16.791Z,1008.5
2023-11-18T11:04:30.046Z,1008.5
2023-11-18T11:05:44.285Z,1008.5
2023-11-18T11:06:58.524Z,1008.6
2023-11-18T11:08:12.763Z,1008.6
2023-11-18T11:09:27.002Z,1008.6
2023-11-18T11:10:41.241Z,1008.6
2023-11-18T11:11:55.480Z,1008.6
2023-11-18T11:13:09.719Z,1008.6
2023-11-18T11:14:23.958Z,1008.6
2023-11-18T11:15:38.197Z,1008.6
2023-11-18T11:16:52.436Z,1008.6
2023-11-18T11:18:06.675Z,1008.6
2023-11-18T11:19:20.914Z,1008.6
2023-11-18T11:20:34.169Z,1008.5
2023-11-18T11:21:48.408Z,1008.5
2023-11-18T11:23:02.647Z,1008.5
2023-11-18T11:24:16.886Z,1008.4
2023-11-18T11:25:31.125Z,1008.4
2023-11-18T11:26:45.364Z,1008.4
2023-11-18T11:27:59.604Z,1008.4
2023-11-18T11:29:13.843Z,1008.3
2023-11-18T11:30:28.082Z,1008.3
2023-11-18T11:32:56.560Z,1008.3
2023-11-18T11:34:10.799Z,1008.3
2023-11-18T11:35:25.038Z,1008.3
2023-11-18T11:36:38.293Z,1008.3
2023-11-18T11:37:52.532Z,1008.3
2023-11-18T11:41:35.249Z,1008.3
2023-11-18T11:42:48.510Z,1008.3
2023-11-18T11:44:01.765Z,1008.3
2023-11-18T11:45:16.004Z,1008.2
2023-11-18T11:46:30.243Z,1008.2
2023-11-18T11:47:44.482Z,1008.2
2023-11-18T11:48:58.721Z,1008.2
2023-11-18T11:50:12.960Z,1008.2
2023-11-18T11:51:27.199Z,1008.2
2023-11-18T11:52:41.439Z,1008.2
2023-11-18T11:53:55.678Z,1008.2
2023-11-18T11:55:08.938Z,1008.1
2023-11-18T11:56:22.193Z,1008.1
2023-11-18T11:57:36.433Z,1008.1
2023-11-18T11:58:50.672Z,1008
2023-11-18T12:00:04.911Z,1008
2023-11-18T12:01:19.150Z,1008
2023-11-18T12:02:33.389Z,1008
2023-11-18T12:03:47.628Z,1008
2023-11-18T12:05:01.867Z,1007.9
2023-11-18T12:06:16.106Z,1007.9
2023-11-18T12:07:30.346Z,1007.8
2023-11-18T12:08:44.585Z,1007.8
2023-11-18T12:09:58.824Z,1007.8
2023-11-18T12:11:13.063Z,1007.7
2023-11-18T12:12:26.318Z,1007.7
2023-11-18T12:13:40.557Z,1007.7
2023-11-18T12:14:54.796Z,1007.6
2023-11-18T12:16:09.035Z,1007.6
2023-11-18T12:17:23.274Z,1007.6
2023-11-18T12:18:37.513Z,1007.6
2023-11-18T12:19:51.752Z,1007.5
2023-11-18T12:21:05.991Z,1007.5
2023-11-18T12:23:34.469Z,1007.5
2023-11-18T12:24:48.708Z,1007.5
2023-11-18T12:26:02.947Z,1007.5
2023-11-18T12:27:17.186Z,1007.5
2023-11-18T12:28:30.441Z,1007.5
2023-11-18T12:29:44.681Z,1007.5
2023-11-18T12:32:13.159Z,1007.4
2023-11-18T12:33:27.398Z,1007.4
2023-11-18T12:34:41.637Z,1007.4
2023-11-18T12:35:55.876Z,1007.4
2023-11-18T12:37:10.115Z,1007.4
2023-11-18T12:38:24.354Z,1007.4
2023-11-18T12:39:38.593Z,1007.4
2023-11-18T12:40:52.832Z,1007.4
2023-11-18T12:43:21.310Z,1007.4
2023-11-18T12:44:34.571Z,1007.3
2023-11-18T12:45:47.826Z,1007.3
2023-11-18T12:47:02.065Z,1007.3
2023-11-18T12:48:16.304Z,1007.3
2023-11-18T12:49:30.543Z,1007.3
2023-11-18T12:50:44.782Z,1007.3
2023-11-18T12:51:59.021Z,1007.3
2023-11-18T12:53:13.260Z,1007.2
2023-11-18T12:54:27.499Z,1007.2
2023-11-18T12:55:41.738Z,1007.1
2023-11-18T12:56:54.999Z,1007.1
2023-11-18T12:58:08.254Z,1007
2023-11-18T12:59:22.493Z,1006.9
2023-11-18T13:00:36.732Z,1006.9
2023-11-18T13:01:49.992Z,1006.9
2023-11-18T13:03:04.231Z,1006.8
2023-11-18T13:04:18.470Z,1006.8
2023-11-18T13:05:32.709Z,1006.8
2023-11-18T13:06:46.948Z,1006.9
2023-11-18T13:08:01.187Z,1006.9
2023-11-18T13:09:15.426Z,1006.9
2023-11-18T13:10:29.665Z,1006.9
2023-11-18T13:11:43.904Z,1006.9
2023-11-18T13:12:58.143Z,1006.9
2023-11-18T13:14:12.382Z,1006.9
2023-11-18T13:15:26.622Z,1007
2023-11-18T13:16:40.861Z,1007
2023-11-18T13:17:54.116Z,1007
2023-11-18T13:19:08.356Z,1007
2023-11-18T13:20:22.595Z,1007
2023-11-18T13:21:36.834Z,1007
2023-11-18T13:22:51.073Z,1006.9
2023-11-18T13:25:19.551Z,1006.9
2023-11-18T13:26:33.790Z,1007
2023-11-18T13:27:48.029Z,1007
2023-11-18T13:29:02.268Z,1006.9
2023-11-18T13:30:16.507Z,1006.9
2023-11-18T13:31:30.746Z,1006.9
2023-11-18T13:35:13.463Z,1006.9
2023-11-18T13:36:26.723Z,1006.9
2023-11-18T13:37:39.978Z,1006.9
2023-11-18T13:38:54.218Z,1007
2023-11-18T13:40:08.457Z,1007
2023-11-18T13:41:22.696Z,1007
2023-11-18T13:42:36.935Z,1007
2023-11-18T13:43:51.174Z,1007
2023-11-18T13:46:19.652Z,1006.9
2023-11-18T13:47:33.891Z,1006.8
2023-11-18T13:48:48.130Z,1006.9
2023-11-18T13:50:02.369Z,1006.9
2023-11-18T13:52:30.847Z,1007.1
2023-11-18T13:54:58.347Z,1007
2023-11-18T13:56:11.607Z,1007.1
2023-11-18T13:57:24.867Z,1007.1
2023-11-18T13:58:38.123Z,1007.1
2023-11-18T13:59:52.362Z,1007.1
2023-11-18T14:01:06.601Z,1007.1
2023-11-18T14:02:20.840Z,1007.1
2023-11-18T14:03:35.079Z,1007.1
2023-11-18T14:04:49.318Z,1007.1
2023-11-18T14:06:03.557Z,1007.1
2023-11-18T14:07:17.797Z,1007.1
2023-11-18T14:08:32.036Z,1007.1
2023-11-18T14:09:45.296Z,1007.1
2023-11-18T14:10:58.551Z,1007
2023-11-18T14:12:12.791Z,1007
2023-11-18T14:13:27.030Z,1007
2023-11-18T14:14:41.269Z,1007
2023-11-18T14:15:55.508Z,1006.9
2023-11-18T14:17:09.748Z,1006.9
2023-11-18T14:18:23.987Z,1006.9
2023-11-18T14:19:38.226Z,1006.8
2023-11-18T14:20:52.465Z,1006.8
2023-11-18T14:22:05.725Z,1006.7
2023-11-18T14:23:18.986Z,1006.7
2023-11-18T14:24:32.241Z,1006.7
2023-11-18T14:25:46.480Z,1006.7
2023-11-18T14:27:00.720Z,1006.7
2023-11-18T14:28:14.959Z,1006.7
2023-11-18T14:29:29.198Z,1006.6
2023-11-18T14:30:43.438Z,1006.6
2023-11-18T14:31:57.677Z,1006.6
2023-11-18T14:33:11.916Z,1006.6
2023-11-18T14:34:26.155Z,1006.6
2023-11-18T14:36:54.634Z,1006.6
2023-11-18T14:38:08.873Z,1006.5
2023-11-18T14:39:23.113Z,1006.5
2023-11-18T14:40:36.368Z,1006.5
2023-11-18T14:41:50.608Z,1006.5
2023-11-18T14:43:04.847Z,1006.5
2023-11-18T14:44:19.086Z,1006.5
2023-11-18T14:45:33.325Z,1006.4
2023-11-18T14:46:47.565Z,1006.4
2023-11-18T14:48:01.804Z,1006.4
2023-11-18T14:49:15.065Z,1006.4
2023-11-18T14:50:28.320Z,1006.4
2023-11-18T14:52:56.799Z,1006.4
2023-11-18T14:54:11.038Z,1006.4
2023-11-18T14:55:25.278Z,1006.4
2023-11-18T14:56:39.517Z,1006.4
2023-11-18T14:57:53.756Z,1006.5
2023-11-18T14:59:07.996Z,1006.4
2023-11-18T15:00:22.235Z,1006.4
2023-11-18T15:01:36.474Z,1006.4
2023-11-18T15:02:50.714Z,1006.4
2023-11-18T15:04:04.953Z,1006.3
2023-11-18T15:05:19.192Z,1006.3
2023-11-18T15:06:32.448Z,1006.3
2023-11-18T15:07:46.687Z,1006.3
2023-11-18T15:09:00.926Z,1006.2
2023-11-18T15:10:15.166Z,1006.2
2023-11-18T15:11:29.405Z,1006.2
2023-11-18T15:12:43.644Z,1006.1
2023-11-18T15:13:57.884Z,1006.1
2023-11-18T15:15:11.144Z,1006
2023-11-18T15:16:24.400Z,1006
2023-11-18T15:17:38.639Z,1006
2023-11-18T15:18:52.878Z,1006
2023-11-18T15:20:07.117Z,1005.9
2023-11-18T15:21:21.356Z,1005.9
2023-11-18T15:22:35.596Z,1005.9
2023-11-18T15:23:49.835Z,1005.9
2023-11-18T15:25:04.074Z,1005.9
2023-11-18T15:26:18.314Z,1005.9
2023-11-18T15:27:32.553Z,1005.9
2023-11-18T15:28:46.792Z,1005.9
2023-11-18T15:30:01.031Z,1005.8
2023-11-18T15:31:15.271Z,1005.8
2023-11-18T15:32:28.526Z,1005.8
2023-11-18T15:33:42.765Z,1005.8
2023-11-18T15:34:57.005Z,1005.8
2023-11-18T15:36:11.244Z,1005.8
2023-11-18T15:37:25.483Z,1005.8
2023-11-18T15:38:39.722Z,1005.7
2023-11-18T15:39:54.016Z,1005.7
2023-11-18T15:41:08.309Z,1005.7
2023-11-18T15:42:22.603Z,1005.7
2023-11-18T15:43:36.896Z,1005.7
2023-11-18T15:44:51.189Z,1005.7
2023-11-18T15:46:05.482Z,1005.6
2023-11-18T15:47:19.776Z,1005.6
2023-11-18T15:48:33.085Z,1005.6
2023-11-18T15:49:47.378Z,1005.6
2023-11-18T15:51:01.672Z,1005.7
2023-11-18T15:52:15.965Z,1005.7
2023-11-18T15:53:30.258Z,1005.7
2023-11-18T15:54:44.551Z,1005.7
2023-11-18T15:55:58.844Z,1005.7
2023-11-18T15:57:13.138Z,1005.6
2023-11-18T15:58:27.431Z,1005.6
2023-11-18T15:59:41.725Z,1005.6
2023-11-18T16:00:56.018Z,1005.5
2023-11-18T16:02:10.311Z,1005.5
2023-11-18T16:03:24.604Z,1005.5
2023-11-18T16:04:37.914Z,1005.5
2023-11-18T16:05:52.207Z,1005.5
2023-11-18T16:07:06.500Z,1005.5
2023-11-18T16:08:20.793Z,1005.5
2023-11-18T16:09:35.087Z,1005.4
2023-11-18T16:10:49.380Z,1005.4
2023-11-18T16:12:03.673Z,1005.4